Time;durP1;ratioP1;P1;durP2;ratioP2;P2;SDS_P1;SDS_P2;PMS_P1;PMS_P2;Temp;Humidity;BMP_temperature;BMP_pressure;BME280_temperature;BME280_humidity;BME280_pressure;Samples;Min_cycle;Max_cycle;Signal;HPM_P1;HPM_P2
2022/07/22 00:00:24;;;;;;;1.50;1.40;;;20.90;99.90;;;;;;5093600;28;20586;-63
2022/07/22 00:02:50;;;;;;;1.38;1.35;;;20.90;99.90;;;;;;5093833;28;20290;-62
2022/07/22 00:05:17;;;;;;;1.17;1.17;;;20.80;99.90;;;;;;5084556;28;20663;-63
2022/07/22 00:07:44;;;;;;;1.40;1.30;;;20.80;99.90;;;;;;5093423;28;20218;-63
2022/07/22 00:10:12;;;;;;;1.25;1.25;;;20.80;99.90;;;;;;5093379;28;20195;-62
2022/07/22 00:12:40;;;;;;;1.20;1.20;;;20.90;99.90;;;;;;5093542;28;20210;-63
2022/07/22 00:15:08;;;;;;;1.40;1.30;;;20.80;99.90;;;;;;5093064;28;20206;-62
2022/07/22 00:17:37;;;;;;;1.10;1.10;;;20.80;99.90;;;;;;5091952;28;20375;-62
2022/07/22 00:20:06;;;;;;;1.30;1.30;;;20.70;99.90;;;;;;5093442;28;20256;-63
2022/07/22 00:22:33;;;;;;;1.15;1.15;;;20.60;99.90;;;;;;5093099;28;20714;-63
2022/07/22 00:25:00;;;;;;;1.17;1.17;;;20.50;99.90;;;;;;5093178;28;20209;-62
2022/07/22 00:27:26;;;;;;;1.40;1.40;;;20.40;99.90;;;;;;5093009;28;20258;-62
2022/07/22 00:29:53;;;;;;;1.30;1.30;;;20.40;99.90;;;;;;5093860;28;20314;-62
2022/07/22 00:32:20;;;;;;;1.38;1.30;;;20.30;99.90;;;;;;5092414;28;20214;-62
2022/07/22 00:34:49;;;;;;;1.30;1.20;;;20.30;99.90;;;;;;5091885;28;20245;-62
2022/07/22 00:37:15;;;;;;;1.35;1.30;;;20.30;99.90;;;;;;5092398;28;20269;-62
2022/07/22 00:39:42;;;;;;;1.30;1.30;;;20.20;99.90;;;;;;5093059;28;20259;-63
2022/07/22 00:42:14;;;;;;;1.25;1.25;;;20.20;99.90;;;;;;5092615;28;20195;-62
2022/07/22 00:44:40;;;;;;;1.13;1.13;;;20.20;99.90;;;;;;5093291;28;20194;-62
2022/07/22 00:47:08;;;;;;;1.40;1.33;;;20.20;99.90;;;;;;5092740;28;20222;-62
2022/07/22 00:49:35;;;;;;;1.35;1.30;;;20.10;99.90;;;;;;5091609;28;20259;-63
2022/07/22 00:52:04;;;;;;;1.23;1.23;;;20.10;99.90;;;;;;5092412;28;20242;-62
2022/07/22 00:54:31;;;;;;;1.10;1.10;;;20.20;99.90;;;;;;5092180;28;20619;-64
2022/07/22 00:56:58;;;;;;;1.40;1.30;;;20.10;99.90;;;;;;5091510;28;20569;-62
2022/07/22 00:59:26;;;;;;;1.45;1.45;;;20.10;99.90;;;;;;5092542;28;20202;-63
2022/07/22 01:01:52;;;;;;;1.40;1.30;;;20.10;99.90;;;;;;5093250;28;20289;-62
2022/07/22 01:04:19;;;;;;;1.70;1.60;;;20.20;99.90;;;;;;5092597;28;20213;-63
2022/07/22 01:06:47;;;;;;;1.30;1.30;;;20.10;99.90;;;;;;5091761;28;20227;-63
2022/07/22 01:09:15;;;;;;;1.30;1.30;;;20.10;99.90;;;;;;5093058;28;20231;-64
2022/07/22 01:11:42;;;;;;;1.20;1.20;;;20.10;99.90;;;;;;5092318;28;20194;-64
2022/07/22 01:14:09;;;;;;;1.30;1.30;;;20.10;99.90;;;;;;5092421;28;20198;-61
2022/07/22 01:16:37;;;;;;;1.20;1.20;;;20.10;99.90;;;;;;5092582;28;20313;-61
2022/07/22 01:19:04;;;;;;;1.30;1.30;;;20.10;99.90;;;;;;5091066;28;20202;-62
2022/07/22 01:21:32;;;;;;;1.17;1.15;;;20.10;99.90;;;;;;5091988;28;20633;-64
2022/07/22 01:23:59;;;;;;;1.27;1.27;;;20.00;99.90;;;;;;5091943;28;20207;-61
2022/07/22 01:26:26;;;;;;;1.40;1.30;;;19.90;99.90;;;;;;5090587;28;20617;-64
2022/07/22 01:28:53;;;;;;;1.48;1.38;;;19.80;99.90;;;;;;5092261;28;20295;-63
2022/07/22 01:31:20;;;;;;;1.27;1.27;;;19.80;99.90;;;;;;5091629;28;20281;-63
2022/07/22 01:33:47;;;;;;;1.23;1.23;;;19.80;99.90;;;;;;5091807;28;20317;-62
2022/07/22 01:36:15;;;;;;;1.40;1.30;;;19.70;99.90;;;;;;5091993;28;20249;-63
2022/07/22 01:38:43;;;;;;;1.40;1.30;;;19.70;99.90;;;;;;5091864;28;20198;-63
2022/07/22 01:41:10;;;;;;;1.50;1.40;;;19.60;99.90;;;;;;5091520;28;20208;-63
2022/07/22 01:43:37;;;;;;;1.63;1.50;;;19.50;99.90;;;;;;5091728;28;20218;-64
2022/07/22 01:46:04;;;;;;;1.60;1.50;;;19.50;99.90;;;;;;5091980;28;20311;-63
2022/07/22 01:48:31;;;;;;;1.27;1.27;;;19.50;99.90;;;;;;5090137;28;20656;-63
2022/07/22 01:50:58;;;;;;;1.35;1.27;;;19.40;99.90;;;;;;5091314;28;20661;-63
2022/07/22 01:53:25;;;;;;;1.25;1.25;;;19.50;99.90;;;;;;5091707;28;20226;-62
2022/07/22 01:55:53;;;;;;;1.20;1.20;;;19.40;99.90;;;;;;5091634;28;20289;-62
2022/07/22 01:58:20;;;;;;;1.88;1.77;;;19.40;99.90;;;;;;5091666;28;20568;-62
2022/07/22 02:00:47;;;;;;;1.60;1.50;;;19.40;99.90;;;;;;5086551;28;20630;-63
2022/07/22 02:03:14;;;;;;;1.48;1.38;;;19.40;99.90;;;;;;5091471;28;20278;-63
2022/07/22 02:05:41;;;;;;;1.30;1.30;;;19.40;99.90;;;;;;5091563;28;20209;-62
2022/07/22 02:08:11;;;;;;;1.47;1.37;;;19.40;99.90;;;;;;5091514;28;20198;-62
2022/07/22 02:10:38;;;;;;;1.10;1.10;;;19.50;99.90;;;;;;5083634;28;20643;-63
2022/07/22 02:13:06;;;;;;;1.50;1.40;;;19.50;99.90;;;;;;5090828;28;20223;-64
2022/07/22 02:15:33;;;;;;;1.30;1.30;;;19.50;99.90;;;;;;5091150;28;20225;-63
2022/07/22 02:18:00;;;;;;;1.27;1.27;;;19.40;99.90;;;;;;5090699;28;20226;-60
2022/07/22 02:20:27;;;;;;;1.30;1.30;;;19.30;99.90;;;;;;5089727;28;20210;-61
2022/07/22 02:22:54;;;;;;;1.25;1.25;;;19.30;99.90;;;;;;5091006;28;20290;-64
2022/07/22 02:25:21;;;;;;;1.13;1.13;;;19.30;99.90;;;;;;5091489;28;20199;-62
2022/07/22 02:27:48;;;;;;;1.20;1.20;;;19.30;99.90;;;;;;5090881;28;20222;-61
2022/07/22 02:30:16;;;;;;;1.35;1.35;;;19.20;99.90;;;;;;5090485;28;20611;-63
2022/07/22 02:32:43;;;;;;;1.40;1.40;;;19.20;99.90;;;;;;5085406;28;20702;-61
2022/07/22 02:35:10;;;;;;;1.30;1.30;;;19.20;99.90;;;;;;5090704;28;20195;-64
2022/07/22 02:37:38;;;;;;;1.53;1.43;;;19.10;99.90;;;;;;5090617;28;20645;-63
2022/07/22 02:40:07;;;;;;;1.30;1.30;;;19.10;99.90;;;;;;5090556;28;20707;-64
2022/07/22 02:42:34;;;;;;;1.30;1.30;;;19.10;99.90;;;;;;5088378;28;20256;-63
2022/07/22 02:45:01;;;;;;;1.38;1.38;;;19.10;99.90;;;;;;5090965;28;20205;-62
2022/07/22 02:47:30;;;;;;;1.48;1.48;;;19.10;99.90;;;;;;5090632;28;20226;-63
2022/07/22 02:49:56;;;;;;;1.50;1.42;;;19.10;99.90;;;;;;5083095;28;20195;-63
2022/07/22 02:52:23;;;;;;;1.60;1.50;;;19.10;99.90;;;;;;5089491;28;20222;-63
2022/07/22 02:54:50;;;;;;;1.30;1.30;;;19.00;99.90;;;;;;5091334;28;20580;-63
2022/07/22 02:57:17;;;;;;;1.40;1.40;;;18.90;99.90;;;;;;5092082;28;20360;-63
2022/07/22 02:59:44;;;;;;;1.30;1.30;;;18.90;99.90;;;;;;5093563;28;20226;-63
2022/07/22 03:02:11;;;;;;;1.30;1.30;;;18.90;99.90;;;;;;5092583;28;20296;-63
2022/07/22 03:04:39;;;;;;;1.55;1.45;;;18.70;99.90;;;;;;5092277;28;20226;-63
2022/07/22 03:07:06;;;;;;;1.50;1.40;;;18.60;99.90;;;;;;5090646;28;20222;-63
2022/07/22 03:09:33;;;;;;;1.20;1.20;;;18.60;99.90;;;;;;5089670;28;20293;-63
2022/07/22 03:12:00;;;;;;;1.60;1.50;;;18.60;99.90;;;;;;5090333;28;20234;-62
2022/07/22 03:14:27;;;;;;;1.30;1.30;;;18.60;99.90;;;;;;5088195;28;20314;-62
2022/07/22 03:16:54;;;;;;;1.30;1.30;;;18.60;99.90;;;;;;5090251;28;20770;-62
2022/07/22 03:19:20;;;;;;;1.20;1.20;;;18.70;99.90;;;;;;5087725;28;20205;-63
2022/07/22 03:21:49;;;;;;;1.27;1.27;;;18.60;99.90;;;;;;5090541;28;20195;-63
2022/07/22 03:24:15;;;;;;;1.30;1.30;;;18.60;99.90;;;;;;5087413;28;20198;-63
2022/07/22 03:26:42;;;;;;;1.50;1.50;;;18.60;99.90;;;;;;5083318;28;20229;-63
2022/07/22 03:29:09;;;;;;;1.38;1.38;;;18.60;99.90;;;;;;5090766;28;20199;-65
2022/07/22 03:31:36;;;;;;;1.35;1.35;;;18.60;99.90;;;;;;5088045;28;20757;-62
2022/07/22 03:34:03;;;;;;;1.52;1.42;;;18.60;99.90;;;;;;5093919;28;20257;-63
2022/07/22 03:36:30;;;;;;;1.23;1.23;;;18.60;99.90;;;;;;5089153;28;20623;-62
2022/07/22 03:38:58;;;;;;;1.35;1.35;;;18.60;99.90;;;;;;5093433;28;20209;-62
2022/07/22 03:41:25;;;;;;;1.30;1.30;;;18.70;99.90;;;;;;5089537;28;20206;-62
2022/07/22 03:43:52;;;;;;;1.48;1.30;;;18.70;99.90;;;;;;5089059;28;20209;-63
2022/07/22 03:46:19;;;;;;;1.38;1.38;;;18.70;99.90;;;;;;5094124;28;20738;-63
2022/07/22 03:48:46;;;;;;;1.33;1.33;;;18.70;99.90;;;;;;5087921;28;20298;-62
2022/07/22 03:51:12;;;;;;;1.60;1.50;;;18.70;99.90;;;;;;5085893;28;20226;-62
2022/07/22 03:53:39;;;;;;;1.27;1.27;;;18.60;99.90;;;;;;5088217;28;20310;-63
2022/07/22 03:56:09;;;;;;;1.48;1.38;;;18.60;99.90;;;;;;5082312;28;20700;-63
2022/07/22 03:58:35;;;;;;;1.20;1.20;;;18.60;99.90;;;;;;5080154;28;20206;-64
2022/07/22 04:01:02;;;;;;;1.70;1.60;;;18.60;99.90;;;;;;5089610;28;20199;-63
2022/07/22 04:03:29;;;;;;;1.63;1.52;;;18.60;99.90;;;;;;5093965;28;20305;-65
2022/07/22 04:05:56;;;;;;;1.20;1.20;;;18.60;99.90;;;;;;5092459;28;20236;-65
2022/07/22 04:08:23;;;;;;;1.35;1.35;;;18.60;99.90;;;;;;5093487;28;20205;-66
2022/07/22 04:10:50;;;;;;;1.40;1.40;;;18.60;99.90;;;;;;5093724;28;20209;-65
2022/07/22 04:13:18;;;;;;;1.40;1.30;;;18.60;99.90;;;;;;5093209;28;20223;-66
2022/07/22 04:15:45;;;;;;;1.40;1.30;;;18.60;99.90;;;;;;5093231;28;20194;-65
2022/07/22 04:18:12;;;;;;;1.40;1.40;;;18.60;99.90;;;;;;5093320;28;20576;-65
2022/07/22 04:20:38;;;;;;;1.60;1.50;;;18.60;99.90;;;;;;5091790;28;20293;-65
2022/07/22 04:23:05;;;;;;;1.38;1.38;;;18.60;99.90;;;;;;5093728;28;20194;-65
2022/07/22 04:25:32;;;;;;;1.48;1.38;;;18.60;99.90;;;;;;5093555;28;20669;-65
2022/07/22 04:27:59;;;;;;;1.47;1.43;;;18.60;99.90;;;;;;5094197;28;20572;-65
2022/07/22 04:30:28;;;;;;;1.55;1.45;;;18.60;99.90;;;;;;5094003;28;20261;-65
2022/07/22 04:32:54;;;;;;;1.33;1.33;;;18.70;99.90;;;;;;5093980;28;20226;-65
2022/07/22 04:35:21;;;;;;;1.30;1.30;;;18.70;99.90;;;;;;5093594;28;20205;-62
2022/07/22 04:37:48;;;;;;;1.58;1.48;;;18.70;99.90;;;;;;5087333;28;20248;-61
2022/07/22 04:40:15;;;;;;;1.10;1.10;;;18.80;99.90;;;;;;5093249;28;20671;-62
2022/07/22 04:42:42;;;;;;;1.20;1.20;;;18.80;99.90;;;;;;5093444;28;20229;-63
2022/07/22 04:45:10;;;;;;;1.30;1.30;;;18.90;99.90;;;;;;5093494;28;20622;-62
2022/07/22 04:47:38;;;;;;;1.50;1.40;;;18.90;99.90;;;;;;5090240;28;20218;-61
2022/07/22 04:50:06;;;;;;;1.50;1.40;;;18.90;99.90;;;;;;5092293;28;20198;-61
2022/07/22 04:52:32;;;;;;;1.30;1.30;;;18.90;99.90;;;;;;5091096;28;20286;-60
2022/07/22 04:54:59;;;;;;;1.30;1.30;;;18.90;99.90;;;;;;5093545;28;20305;-61
2022/07/22 04:57:26;;;;;;;1.30;1.30;;;18.90;99.90;;;;;;5092369;28;20860;-60
2022/07/22 04:59:54;;;;;;;1.40;1.40;;;19.00;99.90;;;;;;5094144;28;20205;-61
2022/07/22 05:02:21;;;;;;;1.50;1.50;;;19.00;99.90;;;;;;5088511;28;20199;-61
2022/07/22 05:04:49;;;;;;;1.45;1.45;;;19.10;99.90;;;;;;5085136;28;20195;-61
2022/07/22 05:07:16;;;;;;;1.33;1.33;;;19.00;99.90;;;;;;5091742;28;20222;-61
2022/07/22 05:09:43;;;;;;;1.58;1.48;;;19.10;99.90;;;;;;5078680;28;20290;-60
2022/07/22 05:12:10;;;;;;;1.40;1.40;;;19.10;99.90;;;;;;5091280;28;20205;-60
2022/07/22 05:14:37;;;;;;;1.50;1.50;;;19.20;99.90;;;;;;5086976;28;20229;-61
2022/07/22 05:17:03;;;;;;;1.17;1.17;;;19.20;99.90;;;;;;5092460;28;20218;-62
2022/07/22 05:19:30;;;;;;;1.40;1.40;;;19.30;99.90;;;;;;5091598;28;20210;-61
2022/07/22 05:21:58;;;;;;;1.40;1.30;;;19.40;99.90;;;;;;5092406;28;20777;-61
2022/07/22 05:24:25;;;;;;;1.30;1.30;;;19.50;99.90;;;;;;5081049;28;20238;-60
2022/07/22 05:26:52;;;;;;;1.40;1.40;;;19.60;99.90;;;;;;5084470;28;20317;-62
2022/07/22 05:29:19;;;;;;;1.50;1.40;;;19.80;99.90;;;;;;5117509;22;20324;-65
2022/07/22 05:31:46;;;;;;;1.20;1.20;;;20.00;99.90;;;;;;5112318;28;20705;-65
2022/07/22 05:34:13;;;;;;;1.25;1.25;;;20.10;99.90;;;;;;5106209;28;20220;-66
2022/07/22 05:36:40;;;;;;;1.43;1.43;;;20.30;99.90;;;;;;5117579;28;20197;-65
2022/07/22 05:39:08;;;;;;;1.70;1.35;;;20.50;99.90;;;;;;5108529;28;20261;-66
2022/07/22 05:41:35;;;;;;;1.20;1.20;;;20.70;99.90;;;;;;5089267;28;20284;-65
2022/07/22 05:44:02;;;;;;;1.65;1.50;;;20.90;99.90;;;;;;5109685;28;20249;-68
2022/07/22 05:46:28;;;;;;;1.40;1.40;;;21.10;99.90;;;;;;5101039;28;20553;-67
2022/07/22 05:48:55;;;;;;;1.30;1.30;;;21.20;99.90;;;;;;5107733;28;20244;-67
2022/07/22 05:51:22;;;;;;;1.30;1.30;;;21.40;99.90;;;;;;5099500;28;20655;-65
2022/07/22 05:53:50;;;;;;;1.25;1.25;;;21.50;99.90;;;;;;5093518;28;20220;-67
2022/07/22 05:56:18;;;;;;;1.60;1.50;;;21.60;99.90;;;;;;5104933;28;20627;-67
2022/07/22 05:58:45;;;;;;;1.30;1.30;;;21.80;99.90;;;;;;5095769;28;20718;-65
2022/07/22 06:01:13;;;;;;;1.40;1.40;;;21.80;99.90;;;;;;5100584;28;20651;-65
2022/07/22 06:03:40;;;;;;;1.40;1.40;;;21.90;99.90;;;;;;5102617;28;20731;-67
2022/07/22 06:06:08;;;;;;;1.50;1.40;;;22.00;99.90;;;;;;5097998;28;20226;-65
2022/07/22 06:08:35;;;;;;;1.30;1.30;;;22.10;99.90;;;;;;5097895;28;20227;-66
2022/07/22 06:11:02;;;;;;;1.70;1.60;;;22.20;99.90;;;;;;5101071;28;20237;-66
2022/07/22 06:13:30;;;;;;;1.70;1.60;;;22.30;99.90;;;;;;5104720;28;20278;-65
2022/07/22 06:15:57;;;;;;;1.60;1.50;;;22.20;99.90;;;;;;5097893;28;20245;-65
2022/07/22 06:18:24;;;;;;;1.60;1.60;;;22.20;99.90;;;;;;5100166;28;20329;-64
2022/07/22 06:20:51;;;;;;;1.60;1.60;;;22.20;99.90;;;;;;5095243;28;21699;-65
2022/07/22 06:23:18;;;;;;;1.90;1.80;;;22.30;99.90;;;;;;5098988;28;20281;-67
2022/07/22 06:25:45;;;;;;;1.83;1.73;;;22.40;99.90;;;;;;5100551;28;20313;-64
2022/07/22 06:28:12;;;;;;;1.70;1.60;;;22.50;99.90;;;;;;5093396;28;20256;-66
2022/07/22 06:30:40;;;;;;;1.63;1.52;;;22.60;99.90;;;;;;5102900;28;20212;-63
2022/07/22 06:33:08;;;;;;;1.80;1.70;;;22.70;99.90;;;;;;5085575;28;20293;-65
2022/07/22 06:35:35;;;;;;;1.70;1.60;;;22.60;99.90;;;;;;5091232;28;20213;-66
2022/07/22 06:38:02;;;;;;;1.77;1.67;;;22.70;99.90;;;;;;5089118;28;20258;-64
2022/07/22 06:40:29;;;;;;;2.00;1.80;;;22.70;99.90;;;;;;5095437;28;20214;-64
2022/07/22 06:42:56;;;;;;;1.70;1.60;;;22.90;99.90;;;;;;5102255;28;20573;-64
2022/07/22 06:45:23;;;;;;;1.55;1.52;;;23.00;99.90;;;;;;5090686;28;20786;-66
2022/07/22 06:47:51;;;;;;;3.92;1.73;;;23.10;99.90;;;;;;5091327;28;20218;-65
2022/07/22 06:50:18;;;;;;;1.80;1.70;;;23.10;99.90;;;;;;5081697;28;20210;-66
2022/07/22 06:52:46;;;;;;;1.85;1.75;;;22.90;99.90;;;;;;5083734;28;20294;-64
2022/07/22 06:55:12;;;;;;;1.60;1.50;;;22.90;99.90;;;;;;5086157;28;20685;-66
2022/07/22 06:57:39;;;;;;;1.70;1.60;;;23.00;99.90;;;;;;5081407;28;20223;-65
2022/07/22 07:00:08;;;;;;;3.33;1.88;;;22.80;99.90;;;;;;5085037;28;20221;-65
2022/07/22 07:02:35;;;;;;;1.83;1.73;;;22.90;99.90;;;;;;5077378;28;20210;-65
2022/07/22 07:05:06;;;;;;;1.45;1.45;;;23.00;99.90;;;;;;5103030;28;20204;-66
2022/07/22 07:07:33;;;;;;;1.70;1.60;;;23.10;99.90;;;;;;5116535;28;20217;-65
2022/07/22 07:10:00;;;;;;;1.65;1.55;;;23.20;99.90;;;;;;5108709;28;20715;-63
2022/07/22 07:12:27;;;;;;;1.90;1.80;;;23.40;99.90;;;;;;5114246;28;20242;-65
2022/07/22 07:14:54;;;;;;;1.40;1.40;;;23.50;99.90;;;;;;5106141;28;20297;-65
2022/07/22 07:17:21;;;;;;;1.90;1.63;;;23.50;99.90;;;;;;5106060;28;20235;-64
2022/07/22 07:19:48;;;;;;;1.63;1.60;;;23.50;99.90;;;;;;5106921;28;20195;-66
2022/07/22 07:22:16;;;;;;;4.50;2.20;;;23.60;99.90;;;;;;5105159;28;20294;-63
2022/07/22 07:24:43;;;;;;;1.70;1.60;;;23.70;99.90;;;;;;5107056;28;20232;-66
2022/07/22 07:27:10;;;;;;;1.90;1.80;;;23.80;99.90;;;;;;5094563;28;20210;-64
2022/07/22 07:29:37;;;;;;;1.75;1.65;;;23.90;99.90;;;;;;5087680;28;20230;-63
2022/07/22 07:32:04;;;;;;;3.00;2.40;;;23.90;99.90;;;;;;5083164;28;20224;-65
2022/07/22 07:34:31;;;;;;;1.95;1.85;;;23.80;99.90;;;;;;5078052;28;20221;-66
2022/07/22 07:36:58;;;;;;;3.75;1.83;;;23.90;99.90;;;;;;5082708;28;20278;-65
2022/07/22 07:39:26;;;;;;;1.80;1.70;;;24.10;99.90;;;;;;5083214;28;20284;-65
2022/07/22 07:41:53;;;;;;;1.80;1.70;;;24.30;99.90;;;;;;5080069;28;20281;-65
2022/07/22 07:44:20;;;;;;;4.70;2.00;;;24.40;99.90;;;;;;5085975;28;20207;-66
2022/07/22 07:46:47;;;;;;;2.00;1.88;;;24.40;99.90;;;;;;5101154;28;20214;-63
2022/07/22 07:49:14;;;;;;;2.15;2.05;;;24.50;99.90;;;;;;5115152;28;20852;-65
2022/07/22 07:51:41;;;;;;;2.03;1.90;;;24.60;99.90;;;;;;5095212;28;20319;-67
2022/07/22 07:54:08;;;;;;;6.05;3.00;;;24.70;99.90;;;;;;5084056;28;20683;-66
2022/07/22 07:56:38;;;;;;;2.13;1.92;;;24.90;99.90;;;;;;5088666;28;20657;-66
2022/07/22 07:59:05;;;;;;;1.85;1.75;;;25.00;99.90;;;;;;5081546;28;20229;-66
2022/07/22 08:01:32;;;;;;;3.42;2.25;;;25.10;99.90;;;;;;5083621;28;20210;-68
2022/07/22 08:03:59;;;;;;;1.90;1.80;;;25.20;99.90;;;;;;5081152;28;20692;-67
2022/07/22 08:06:26;;;;;;;1.95;1.75;;;25.10;99.90;;;;;;5083970;28;20227;-68
2022/07/22 08:08:53;;;;;;;2.03;1.92;;;25.20;99.90;;;;;;5082132;28;20231;-67
2022/07/22 08:11:20;;;;;;;1.95;1.85;;;25.40;99.90;;;;;;5092551;28;20256;-65
2022/07/22 08:13:48;;;;;;;1.92;1.83;;;25.50;99.90;;;;;;5085716;28;20195;-68
2022/07/22 08:16:15;;;;;;;1.63;1.60;;;25.60;99.90;;;;;;5080807;28;20235;-66
2022/07/22 08:18:42;;;;;;;2.08;1.90;;;25.70;99.90;;;;;;5087070;28;20219;-67
2022/07/22 08:21:09;;;;;;;1.67;1.58;;;25.80;99.90;;;;;;5091657;28;20240;-67
2022/07/22 08:23:36;;;;;;;1.95;1.75;;;25.90;99.90;;;;;;5083526;28;20290;-65
2022/07/22 08:26:03;;;;;;;1.77;1.67;;;25.90;99.90;;;;;;5084773;28;20293;-67
2022/07/22 08:28:30;;;;;;;2.00;1.90;;;25.90;99.90;;;;;;5090454;28;20273;-65
2022/07/22 08:30:58;;;;;;;1.85;1.75;;;25.90;99.90;;;;;;5083309;28;20300;-67
2022/07/22 08:33:25;;;;;;;1.90;1.80;;;25.90;99.90;;;;;;5090092;28;20710;-67
2022/07/22 08:35:52;;;;;;;1.70;1.63;;;26.20;99.90;;;;;;5087449;28;20281;-68
2022/07/22 08:38:19;;;;;;;1.85;1.75;;;26.00;99.90;;;;;;5086914;28;20254;-67
2022/07/22 08:40:46;;;;;;;1.70;1.60;;;25.90;99.90;;;;;;5084803;28;20207;-67
2022/07/22 08:43:14;;;;;;;1.33;1.33;;;25.90;99.90;;;;;;5088271;28;20256;-66
2022/07/22 08:45:41;;;;;;;2.03;1.50;;;26.20;99.90;;;;;;5080968;28;20206;-68
2022/07/22 08:48:10;;;;;;;1.63;1.52;;;26.40;99.90;;;;;;5083638;28;20219;-68
2022/07/22 08:50:37;;;;;;;1.88;1.77;;;26.50;99.90;;;;;;5080849;28;20223;-67
2022/07/22 08:53:04;;;;;;;1.85;1.75;;;26.40;99.90;;;;;;5086846;28;20586;-66
2022/07/22 08:55:31;;;;;;;1.80;1.70;;;26.50;99.90;;;;;;5082522;28;20596;-66
2022/07/22 08:57:58;;;;;;;1.90;1.80;;;26.70;99.90;;;;;;5089711;28;20309;-66
2022/07/22 09:00:25;;;;;;;1.65;1.60;;;26.80;99.90;;;;;;5095820;28;20286;-66
2022/07/22 09:02:52;;;;;;;1.70;1.60;;;26.60;99.90;;;;;;5087582;28;20282;-66
2022/07/22 09:05:20;;;;;;;1.58;1.48;;;26.50;99.90;;;;;;5093003;28;20226;-66
2022/07/22 09:07:47;;;;;;;1.60;1.50;;;26.60;99.90;;;;;;5092160;28;20310;-66
2022/07/22 09:10:17;;;;;;;2.58;1.80;;;26.80;99.90;;;;;;5090648;28;20199;-66
2022/07/22 09:12:55;;;;;;;1.98;1.88;;;26.90;99.90;;;;;;5095268;28;20726;-65
2022/07/22 09:15:30;;;;;;;1.50;1.50;;;27.00;99.90;;;;;;5095705;28;20215;-66
2022/07/22 09:17:57;;;;;;;1.92;1.83;;;27.00;99.90;;;;;;5086992;28;20220;-65
2022/07/22 09:20:27;;;;;;;1.80;1.70;;;26.90;99.90;;;;;;5094580;28;20206;-67
2022/07/22 09:22:54;;;;;;;2.00;1.90;;;26.80;99.90;;;;;;5089454;28;20723;-67
2022/07/22 09:25:25;;;;;;;1.70;1.60;;;27.00;99.90;;;;;;5085526;28;20290;-67
2022/07/22 09:27:54;;;;;;;1.55;1.55;;;27.20;99.90;;;;;;5088744;28;20265;-65
2022/07/22 09:30:23;;;;;;;1.70;1.60;;;27.10;99.90;;;;;;5091535;28;20302;-67
2022/07/22 09:32:51;;;;;;;1.60;1.60;;;27.20;99.90;;;;;;5093541;28;20296;-66
2022/07/22 09:35:19;;;;;;;1.60;1.50;;;27.40;99.90;;;;;;5093224;28;20227;-66
2022/07/22 09:37:52;;;;;;;1.65;1.55;;;27.50;99.90;;;;;;5096532;28;20221;-67
2022/07/22 09:40:21;;;;;;;1.67;1.58;;;27.40;99.90;;;;;;5087638;28;20238;-67
2022/07/22 09:42:51;;;;;;;1.48;1.48;;;27.60;99.90;;;;;;5097886;28;20205;-67
2022/07/22 09:45:19;;;;;;;1.50;1.50;;;27.80;99.90;;;;;;5086087;28;20923;-66
2022/07/22 09:47:48;;;;;;;1.60;1.50;;;27.90;99.90;;;;;;5088976;28;20229;-68
2022/07/22 09:50:21;;;;;;;1.90;1.80;;;27.90;99.90;;;;;;5080872;28;20194;-66
2022/07/22 09:52:49;;;;;;;1.88;1.70;;;27.80;99.90;;;;;;5089259;28;20207;-67
2022/07/22 09:55:18;;;;;;;2.65;1.52;;;28.00;99.90;;;;;;5085278;28;20268;-66
2022/07/22 09:57:46;;;;;;;1.90;1.80;;;28.20;99.90;;;;;;5078219;28;20231;-67
2022/07/22 10:00:15;;;;;;;1.55;1.50;;;28.30;99.90;;;;;;5082361;28;20206;-66
2022/07/22 10:02:47;;;;;;;1.70;1.60;;;28.30;99.90;;;;;;5088938;28;20282;-66
2022/07/22 10:05:15;;;;;;;2.03;1.90;;;28.40;99.90;;;;;;5094178;28;20223;-66
2022/07/22 10:07:43;;;;;;;1.67;1.58;;;28.60;99.90;;;;;;5081583;28;20729;-66
2022/07/22 10:10:15;;;;;;;2.22;1.80;;;28.50;99.90;;;;;;5080622;28;20195;-66
2022/07/22 10:12:44;;;;;;;1.80;1.70;;;28.60;99.90;;;;;;5081446;28;20206;-67
2022/07/22 10:15:12;;;;;;;1.67;1.58;;;28.70;99.90;;;;;;5085659;28;20229;-67
2022/07/22 10:17:43;;;;;;;1.70;1.60;;;28.60;99.90;;;;;;5081769;28;20208;-66
2022/07/22 10:20:11;;;;;;;1.90;1.80;;;28.80;99.90;;;;;;5088622;28;20285;-67
2022/07/22 10:22:53;;;;;;;1.77;1.67;;;29.00;99.90;;;;;;5090562;28;20290;-67
2022/07/22 10:25:21;;;;;;;1.55;1.45;;;28.90;99.90;;;;;;5098510;28;20288;-67
2022/07/22 10:27:51;;;;;;;1.83;1.73;;;29.10;99.90;;;;;;5095910;28;20715;-67
2022/07/22 10:30:20;;;;;;;2.60;1.77;;;29.00;99.90;;;;;;5099002;28;20554;-66
2022/07/22 10:33:03;;;;;;;1.60;1.60;;;29.10;99.90;;;;;;5092956;28;20222;-67
2022/07/22 10:35:31;;;;;;;1.70;1.60;;;29.20;99.90;;;;;;5106148;28;20218;-67
2022/07/22 10:38:00;;;;;;;1.70;1.60;;;29.00;99.90;;;;;;5097977;28;20860;-67
2022/07/22 10:40:29;;;;;;;2.17;2.08;;;28.90;99.90;;;;;;5104656;28;20224;-67
2022/07/22 10:43:14;;;;;;;1.60;1.50;;;29.10;99.90;;;;;;5093503;28;20301;-66
2022/07/22 10:45:45;;;;;;;1.70;1.60;;;29.20;99.90;;;;;;5093160;28;20272;-68
2022/07/22 10:48:13;;;;;;;1.55;1.55;;;29.20;99.90;;;;;;5090691;28;20245;-67
2022/07/22 10:50:43;;;;;;;1.88;1.77;;;29.40;99.90;;;;;;5092722;28;20252;-67
2022/07/22 10:53:12;;;;;;;1.70;1.60;;;29.60;99.90;;;;;;5089356;28;20195;-67
2022/07/22 10:55:57;;;;;;;1.58;1.48;;;29.70;99.90;;;;;;5089023;28;20232;-67
2022/07/22 10:58:48;;;;;;;1.70;1.60;;;29.80;99.90;;;;;;5093987;28;20758;-67
2022/07/22 11:01:19;;;;;;;1.60;1.50;;;29.60;99.90;;;;;;5104210;28;20191;-67
2022/07/22 11:03:47;;;;;;;1.85;1.75;;;29.60;99.90;;;;;;5103098;28;20198;-67
2022/07/22 11:06:17;;;;;;;1.70;1.60;;;29.80;99.90;;;;;;5105924;28;20639;-65
2022/07/22 11:08:45;;;;;;;1.50;1.50;;;30.00;99.90;;;;;;5107858;28;20678;-66
2022/07/22 11:11:12;;;;;;;1.60;1.50;;;30.20;99.90;;;;;;5104030;28;20203;-66
2022/07/22 11:13:42;;;;;;;1.70;1.60;;;30.20;99.90;;;;;;5095755;28;20211;-66
2022/07/22 11:16:22;;;;;;;1.70;1.60;;;30.20;99.90;;;;;;5099987;28;20301;-67
2022/07/22 11:18:52;;;;;;;1.55;1.48;;;30.20;99.90;;;;;;5100309;28;20223;-67
2022/07/22 11:21:22;;;;;;;1.70;1.60;;;30.40;99.90;;;;;;5092118;28;20747;-66
2022/07/22 11:23:53;;;;;;;1.35;1.35;;;30.20;99.90;;;;;;5101609;28;20234;-66
2022/07/22 11:26:25;;;;;;;1.80;1.70;;;30.30;99.90;;;;;;5101492;28;20202;-66
2022/07/22 11:28:52;;;;;;;1.77;1.67;;;30.40;99.90;;;;;;5099370;28;20262;-67
2022/07/22 11:31:21;;;;;;;1.70;1.60;;;30.50;99.90;;;;;;5102856;28;20217;-67
2022/07/22 11:33:48;;;;;;;1.70;1.60;;;30.40;99.90;;;;;;5105182;28;20285;-65
2022/07/22 11:36:16;;;;;;;1.42;1.42;;;30.40;99.90;;;;;;5095023;28;20222;-66
2022/07/22 11:38:46;;;;;;;2.70;1.60;;;30.50;99.90;;;;;;5098031;28;20218;-66
2022/07/22 11:41:13;;;;;;;1.42;1.42;;;30.50;99.90;;;;;;5097270;28;20590;-66
2022/07/22 11:43:42;;;;;;;1.70;1.60;;;30.60;99.90;;;;;;5102931;28;20257;-66
2022/07/22 11:46:10;;;;;;;1.70;1.60;;;30.70;99.90;;;;;;5101385;28;20221;-66
2022/07/22 11:48:39;;;;;;;1.30;1.30;;;30.50;99.90;;;;;;5098630;28;20253;-65
2022/07/22 11:51:07;;;;;;;1.80;1.70;;;30.50;99.90;;;;;;5099381;28;20199;-67
2022/07/22 11:53:34;;;;;;;1.83;1.73;;;30.40;99.90;;;;;;5096063;28;20214;-67
2022/07/22 11:56:02;;;;;;;1.83;1.63;;;30.60;99.90;;;;;;5098841;28;20585;-66
2022/07/22 11:58:41;;;;;;;1.73;1.63;;;30.50;99.90;;;;;;5094391;28;20634;-66
2022/07/22 12:01:10;;;;;;;1.60;1.50;;;30.60;99.90;;;;;;5094358;28;20199;-66
2022/07/22 12:03:42;;;;;;;1.70;1.60;;;30.90;99.90;;;;;;5095561;28;20234;-66
2022/07/22 12:06:12;;;;;;;1.80;1.70;;;31.00;99.90;;;;;;5087982;28;20186;-65
2022/07/22 12:08:44;;;;;;;1.88;1.70;;;31.20;99.90;;;;;;5091661;28;20219;-67
2022/07/22 12:11:12;;;;;;;1.70;1.60;;;31.20;99.90;;;;;;5102037;28;20664;-69
2022/07/22 12:13:43;;;;;;;1.55;1.52;;;31.10;99.90;;;;;;5086837;28;20205;-66
2022/07/22 12:16:22;;;;;;;1.77;1.67;;;31.20;99.90;;;;;;5092166;28;20223;-66
2022/07/22 12:19:00;;;;;;;1.58;1.48;;;31.20;99.90;;;;;;5095938;28;20275;-66
2022/07/22 12:21:28;;;;;;;1.67;1.58;;;31.10;99.90;;;;;;5098196;28;20610;-66
2022/07/22 12:23:58;;;;;;;1.73;1.63;;;31.20;99.90;;;;;;5090902;28;20245;-67
2022/07/22 12:26:47;;;;;;;1.60;1.50;;;31.20;99.90;;;;;;5094829;28;20207;-68
2022/07/22 12:29:20;;;;;;;1.70;1.60;;;31.20;99.90;;;;;;5094943;28;20237;-67
2022/07/22 12:31:48;;;;;;;1.50;1.50;;;31.20;99.90;;;;;;5093028;28;20252;-66
2022/07/22 12:34:17;;;;;;;1.42;1.42;;;31.40;99.90;;;;;;5089460;28;20586;-68
2022/07/22 12:36:46;;;;;;;1.52;1.42;;;31.60;99.90;;;;;;5095373;28;20223;-70
2022/07/22 12:39:18;;;;;;;1.70;1.60;;;31.70;99.90;;;;;;5097140;28;20280;-67
2022/07/22 12:41:50;;;;;;;1.40;1.40;;;31.60;99.90;;;;;;5087832;28;20252;-66
2022/07/22 12:44:22;;;;;;;1.70;1.60;;;31.60;99.90;;;;;;5089603;28;20872;-66
2022/07/22 12:46:51;;;;;;;1.80;1.70;;;31.70;99.90;;;;;;5092920;28;20279;-67
2022/07/22 12:49:21;;;;;;;1.80;1.70;;;31.70;99.90;;;;;;5094729;28;20218;-67
2022/07/22 12:52:11;;;;;;;1.70;1.60;;;31.80;99.90;;;;;;5098204;28;20252;-67